Time;durP1;ratioP1;P1;durP2;ratioP2;P2;SDS_P1;SDS_P2;PMS_P1;PMS_P2;Temp;Humidity;BMP_temperature;BMP_pressure;BME280_temperature;BME280_humidity;BME280_pressure;Samples;Min_cycle;Max_cycle;Signal;HPM_P1;HPM_P2
2021/10/30 00:01:11;;;;;;;;;;;307.60;2304.00;;;;;;5134668;27;19907;-75
2021/10/30 00:03:37;;;;;;;;;;;307.60;2304.00;;;;;;5132252;27;20268;-74
2021/10/30 00:06:02;;;;;;;;;;;307.60;2304.00;;;;;;5128351;27;19993;-74
2021/10/30 00:08:29;;;;;;;;;;;307.40;2304.00;;;;;;5131469;27;20055;-78
2021/10/30 00:10:55;;;;;;;;;;;307.40;2304.00;;;;;;5133414;27;19962;-75
2021/10/30 00:13:21;;;;;;;;;;;307.30;2304.00;;;;;;5134619;27;19927;-75
2021/10/30 00:15:46;;;;;;;;;;;307.30;2304.00;;;;;;5134612;27;19911;-78
2021/10/30 00:18:12;;;;;;;;;;;307.30;2304.00;;;;;;5134837;27;19903;-75
2021/10/30 00:20:37;;;;;;;;;;;307.40;2304.00;;;;;;5134505;27;19926;-74
2021/10/30 00:23:03;;;;;;;;;;;307.40;2304.00;;;;;;5134591;27;19956;-78
2021/10/30 00:25:28;;;;;;;;;;;307.40;2304.00;;;;;;5134630;27;19960;-75
2021/10/30 00:27:54;;;;;;;;;;;307.40;2304.00;;;;;;5134374;27;19934;-75
2021/10/30 00:30:20;;;;;;;;;;;307.40;2304.00;;;;;;5134375;27;20375;-73
2021/10/30 00:32:45;;;;;;;;;;;307.50;2304.00;;;;;;5134098;27;19904;-78
2021/10/30 00:35:11;;;;;;;;;;;307.50;2304.00;;;;;;5134163;27;20384;-73
2021/10/30 00:37:37;;;;;;;;;;;307.40;2304.00;;;;;;5134344;27;20001;-79
2021/10/30 00:40:06;;;;;;;;;;;307.40;2304.00;;;;;;5134268;27;19904;-74
2021/10/30 00:42:32;;;;;;;;;;;307.30;2304.00;;;;;;5134120;27;19960;-75
2021/10/30 00:44:57;;;;;;;;;;;307.30;2304.00;;;;;;5134072;27;19908;-74
2021/10/30 00:47:23;;;;;;;;;;;307.30;2304.00;;;;;;5134257;27;19903;-74
2021/10/30 00:49:48;;;;;;;;;;;307.30;2304.00;;;;;;5134240;27;20284;-74
2021/10/30 00:52:14;;;;;;;;;;;307.30;2304.00;;;;;;5134050;27;19907;-73
2021/10/30 00:54:41;;;;;;;;;;;307.30;2304.00;;;;;;5134210;27;19903;-78
2021/10/30 00:57:09;;;;;;;;;;;307.30;2304.00;;;;;;5130683;27;19950;-77
2021/10/30 00:59:36;;;;;;;;;;;307.30;2304.00;;;;;;5123940;27;20324;-74
2021/10/30 01:02:01;;;;;;;;;;;307.30;2304.00;;;;;;5133880;27;19911;-79
2021/10/30 01:04:27;;;;;;;;;;;307.40;2304.00;;;;;;5131243;27;20276;-78
2021/10/30 01:06:54;;;;;;;;;;;307.40;2304.00;;;;;;5130953;27;19918;-76
2021/10/30 01:09:20;;;;;;;;;;;282.30;2278.40;;;;;;5133602;27;19911;-73
2021/10/30 01:11:46;;;;;;;;;;;307.30;2304.00;;;;;;5133584;27;19915;-78
2021/10/30 01:14:12;;;;;;;;;;;307.30;2304.00;;;;;;5133735;27;19929;-73
2021/10/30 01:16:38;;;;;;;;;;;307.30;2304.00;;;;;;5133610;27;19904;-74
2021/10/30 01:19:05;;;;;;;;;;;307.30;2304.00;;;;;;5133601;27;19960;-73
2021/10/30 01:21:32;;;;;;;;;;;307.60;2304.00;;;;;;5133625;28;20267;-78
2021/10/30 01:23:58;;;;;;;;;;;307.30;2304.00;;;;;;5133946;27;19926;-74
2021/10/30 01:26:25;;;;;;;;;;;307.30;2304.00;;;;;;5133806;27;20002;-73
2021/10/30 01:28:51;;;;;;;;;;;307.30;2304.00;;;;;;5133616;27;19911;-76
2021/10/30 01:31:17;;;;;;;;;;;307.30;2304.00;;;;;;5133472;28;19907;-78
2021/10/30 01:33:46;;;;;;;;;;;307.40;2304.00;;;;;;5133652;28;19911;-73
2021/10/30 01:36:12;;;;;;;;;;;307.40;2304.00;;;;;;5133591;28;19903;-79
2021/10/30 01:38:37;;;;;;;;;;;307.40;2304.00;;;;;;5133625;27;19907;-75
2021/10/30 01:41:03;;;;;;;;;;;307.40;2304.00;;;;;;5133398;28;19914;-73
2021/10/30 01:43:29;;;;;;;;;;;307.40;2304.00;;;;;;5133754;28;19911;-78
2021/10/30 01:45:54;;;;;;;;;;;307.50;2304.00;;;;;;5133209;28;19907;-74
2021/10/30 01:48:26;;;;;;;;;;;307.40;2304.00;;;;;;5133445;28;20360;-73
2021/10/30 01:50:52;;;;;;;;;;;307.50;2304.00;;;;;;5133276;28;19910;-74
2021/10/30 01:53:18;;;;;;;;;;;307.50;2304.00;;;;;;5133463;28;20276;-79
2021/10/30 01:55:43;;;;;;;;;;;307.50;2304.00;;;;;;5133475;28;19904;-75
2021/10/30 01:58:09;;;;;;;;;;;307.50;2304.00;;;;;;5133399;28;20012;-74
2021/10/30 02:00:34;;;;;;;;;;;307.50;2304.00;;;;;;5133513;28;20313;-73
2021/10/30 02:03:00;;;;;;;;;;;307.50;2304.00;;;;;;5133515;28;19991;-73
2021/10/30 02:05:26;;;;;;;;;;;307.50;2304.00;;;;;;5131430;28;19951;-78
2021/10/30 02:07:51;;;;;;;;;;;307.40;2304.00;;;;;;5134512;27;19911;-79
2021/10/30 02:10:17;;;;;;;;;;;307.50;2304.00;;;;;;5137126;27;19907;-73
2021/10/30 02:12:43;;;;;;;;;;;307.40;2304.00;;;;;;5124650;27;20454;-73
2021/10/30 02:15:09;;;;;;;;;;;307.40;2304.00;;;;;;5137325;27;19914;-77
2021/10/30 02:17:35;;;;;;;;;;;307.40;2304.00;;;;;;5137359;27;19907;-77
2021/10/30 02:20:01;;;;;;;;;;;307.40;2304.00;;;;;;5137150;27;19903;-74
2021/10/30 02:22:27;;;;;;;;;;;307.40;2304.00;;;;;;5137087;27;20345;-73
2021/10/30 02:24:53;;;;;;;;;;;307.40;2304.00;;;;;;5137104;27;19903;-73
2021/10/30 02:27:18;;;;;;;;;;;307.40;2304.00;;;;;;5137094;27;19972;-73
2021/10/30 02:29:44;;;;;;;;;;;307.40;2304.00;;;;;;5136996;27;19911;-75
2021/10/30 02:32:10;;;;;;;;;;;307.40;2304.00;;;;;;5136830;27;19908;-73
2021/10/30 02:34:36;;;;;;;;;;;307.40;2304.00;;;;;;5136989;27;19907;-74
2021/10/30 02:37:01;;;;;;;;;;;307.30;2304.00;;;;;;5136745;27;19927;-73
2021/10/30 02:39:27;;;;;;;;;;;307.30;2304.00;;;;;;5136783;27;19903;-75
2021/10/30 02:41:52;;;;;;;;;;;307.30;2304.00;;;;;;5136846;27;19907;-73
2021/10/30 02:44:18;;;;;;;;;;;307.30;2304.00;;;;;;5136587;27;19943;-74
2021/10/30 02:46:44;;;;;;;;;;;307.30;2304.00;;;;;;5136567;27;19910;-77
2021/10/30 02:49:09;;;;;;;;;;;307.20;2304.00;;;;;;5128935;27;19954;-73
2021/10/30 02:51:35;;;;;;;;;;;307.20;2304.00;;;;;;5136653;27;19965;-73
2021/10/30 02:54:01;;;;;;;;;;;282.50;2278.40;;;;;;5136469;27;20365;-74
2021/10/30 02:56:26;;;;;;;;;;;282.50;2278.40;;;;;;5136527;27;19907;-74
2021/10/30 02:58:52;;;;;;;;;;;282.50;2278.40;;;;;;5136447;27;19904;-74
2021/10/30 03:01:17;;;;;;;;;;;307.20;2304.00;;;;;;5136210;27;19903;-73
2021/10/30 03:03:43;;;;;;;;;;;307.20;2304.00;;;;;;5136406;27;20314;-74
2021/10/30 03:06:09;;;;;;;;;;;307.20;2304.00;;;;;;5126590;27;19911;-73
2021/10/30 03:08:35;;;;;;;;;;;307.20;2304.00;;;;;;5136056;27;20351;-75
2021/10/30 03:11:00;;;;;;;;;;;282.20;2278.40;;;;;;5135858;27;19949;-73
2021/10/30 03:13:26;;;;;;;;;;;282.50;2278.40;;;;;;5133240;27;19946;-73
2021/10/30 03:15:52;;;;;;;;;;;282.50;2278.40;;;;;;5135294;27;19911;-73
2021/10/30 03:18:17;;;;;;;;;;;282.50;2278.40;;;;;;5135591;27;19903;-79
2021/10/30 03:20:43;;;;;;;;;;;282.50;2278.40;;;;;;5134618;27;20482;-74
2021/10/30 03:23:09;;;;;;;;;;;282.50;2278.40;;;;;;5145000;27;19907;-73
2021/10/30 03:25:34;;;;;;;;;;;282.50;2278.40;;;;;;5137643;27;19907;-73
2021/10/30 03:28:00;;;;;;;;;;;282.50;2278.40;;;;;;5135988;27;20031;-73
2021/10/30 03:30:26;;;;;;;;;;;282.50;2278.40;;;;;;5135919;27;19910;-73
2021/10/30 03:32:52;;;;;;;;;;;307.20;2304.00;;;;;;5135558;27;19986;-73
2021/10/30 03:35:17;;;;;;;;;;;307.30;2304.00;;;;;;5117296;27;19904;-73
2021/10/30 03:37:43;;;;;;;;;;;307.30;2304.00;;;;;;5135579;27;20368;-73
2021/10/30 03:40:09;;;;;;;;;;;307.30;2304.00;;;;;;5135481;27;19942;-73
2021/10/30 03:42:35;;;;;;;;;;;307.30;2304.00;;;;;;5135621;27;19915;-75
2021/10/30 03:45:01;;;;;;;;;;;307.30;2304.00;;;;;;5135604;27;19948;-74
2021/10/30 03:47:26;;;;;;;;;;;282.40;2278.40;;;;;;5135352;27;19907;-75
2021/10/30 03:49:52;;;;;;;;;;;307.30;2304.00;;;;;;5135453;27;20027;-74
2021/10/30 03:52:17;;;;;;;;;;;307.30;2304.00;;;;;;5135458;27;19986;-74
2021/10/30 03:54:43;;;;;;;;;;;307.30;2304.00;;;;;;5135383;27;19918;-74
2021/10/30 03:57:09;;;;;;;;;;;307.30;2304.00;;;;;;5135208;27;20408;-75
2021/10/30 03:59:34;;;;;;;;;;;307.30;2304.00;;;;;;5135399;27;19936;-74
2021/10/30 04:02:02;;;;;;;;;;;307.30;2304.00;;;;;;5135438;27;20252;-75
2021/10/30 04:04:28;;;;;;;;;;;307.40;2304.00;;;;;;5132455;27;19957;-75
2021/10/30 04:06:54;;;;;;;;;;;307.30;2304.00;;;;;;5135171;27;20356;-75
2021/10/30 04:09:21;;;;;;;;;;;307.30;2304.00;;;;;;5126266;27;19934;-74
2021/10/30 04:11:46;;;;;;;;;;;307.30;2304.00;;;;;;5117029;27;19916;-74
2021/10/30 04:14:12;;;;;;;;;;;307.30;2304.00;;;;;;5134933;27;19930;-74
2021/10/30 04:16:37;;;;;;;;;;;307.30;2304.00;;;;;;5129916;27;19904;-74
2021/10/30 04:19:03;;;;;;;;;;;307.20;2304.00;;;;;;5125567;27;19943;-75
2021/10/30 04:21:29;;;;;;;;;;;307.20;2304.00;;;;;;5131988;27;20360;-75
2021/10/30 04:23:57;;;;;;;;;;;282.50;2278.40;;;;;;5134816;27;19946;-74
2021/10/30 04:26:23;;;;;;;;;;;307.20;2304.00;;;;;;5134634;27;19910;-75
2021/10/30 04:28:49;;;;;;;;;;;307.20;2304.00;;;;;;5116160;27;19911;-75
2021/10/30 04:31:21;;;;;;;;;;;307.20;2304.00;;;;;;5133650;27;19907;-75
2021/10/30 04:33:47;;;;;;;;;;;307.20;2304.00;;;;;;5134536;27;19910;-75
2021/10/30 04:36:17;;;;;;;;;;;307.20;2304.00;;;;;;5124763;27;20272;-75
2021/10/30 04:38:43;;;;;;;;;;;282.50;2278.40;;;;;;5121186;27;19956;-74
2021/10/30 04:41:09;;;;;;;;;;;282.50;2278.40;;;;;;5116020;27;19907;-75
2021/10/30 04:43:35;;;;;;;;;;;282.50;2278.40;;;;;;5134305;27;19915;-75
2021/10/30 04:46:00;;;;;;;;;;;282.50;2278.40;;;;;;5134311;27;19911;-74
2021/10/30 04:48:26;;;;;;;;;;;282.50;2278.40;;;;;;5134070;27;19977;-74
2021/10/30 04:50:52;;;;;;;;;;;282.40;2278.40;;;;;;5134399;27;19907;-75
2021/10/30 04:53:18;;;;;;;;;;;282.40;2278.40;;;;;;5134272;27;19903;-75
2021/10/30 04:55:44;;;;;;;;;;;282.30;2278.40;;;;;;5134198;27;19910;-74
2021/10/30 04:58:09;;;;;;;;;;;282.30;2278.40;;;;;;5134011;27;19911;-75
2021/10/30 05:00:35;;;;;;;;;;;282.30;2278.40;;;;;;5134317;27;19907;-75
2021/10/30 05:03:00;;;;;;;;;;;282.30;2278.40;;;;;;5134104;27;19948;-75
2021/10/30 05:05:26;;;;;;;;;;;282.30;2278.40;;;;;;5134021;27;19903;-75
2021/10/30 05:07:51;;;;;;;;;;;282.30;2278.40;;;;;;5115502;27;19907;-75
2021/10/30 05:10:17;;;;;;;;;;;282.30;2278.40;;;;;;5133810;27;19911;-75
2021/10/30 05:12:43;;;;;;;;;;;282.30;2278.40;;;;;;5133592;27;19920;-75
2021/10/30 05:15:09;;;;;;;;;;;282.30;2278.40;;;;;;5106556;27;19907;-77
2021/10/30 05:17:34;;;;;;;;;;;282.30;2278.40;;;;;;5122614;27;19915;-77
2021/10/30 05:20:00;;;;;;;;;;;282.20;2278.40;;;;;;5104406;28;19916;-76
2021/10/30 05:22:25;;;;;;;;;;;282.30;2278.40;;;;;;5105886;28;20341;-75
2021/10/30 05:24:51;;;;;;;;;;;282.30;2278.40;;;;;;5122896;28;20349;-76
2021/10/30 05:27:17;;;;;;;;;;;282.30;2278.40;;;;;;5122525;28;19904;-77
2021/10/30 05:29:42;;;;;;;;;;;282.30;2278.40;;;;;;5106747;28;19915;-79
2021/10/30 05:32:08;;;;;;;;;;;282.30;2278.40;;;;;;5124533;28;19907;-76
2021/10/30 05:34:34;;;;;;;;;;;282.40;2278.40;;;;;;5122052;28;19911;-75
2021/10/30 05:36:59;;;;;;;;;;;282.30;2278.40;;;;;;5123523;28;19927;-74
2021/10/30 05:39:25;;;;;;;;;;;282.40;2278.40;;;;;;5122627;28;19907;-76
2021/10/30 05:41:50;;;;;;;;;;;282.50;2278.40;;;;;;5117992;28;20356;-74
2021/10/30 05:44:16;;;;;;;;;;;282.50;2278.40;;;;;;5135109;27;20000;-76
2021/10/30 05:46:42;;;;;;;;;;;282.50;2278.40;;;;;;5137865;27;20002;-75
2021/10/30 05:49:09;;;;;;;;;;;282.50;2278.40;;;;;;5110893;27;20107;-75
2021/10/30 05:51:35;;;;;;;;;;;307.20;2304.00;;;;;;5128606;27;19910;-73
2021/10/30 05:54:00;;;;;;;;;;;307.20;2304.00;;;;;;5127702;27;19904;-76
2021/10/30 05:56:26;;;;;;;;;;;307.20;2304.00;;;;;;5129453;27;20268;-77
2021/10/30 05:58:52;;;;;;;;;;;282.40;2278.40;;;;;;5128629;27;20272;-75
2021/10/30 06:01:17;;;;;;;;;;;307.20;2304.00;;;;;;5129988;27;20360;-74
2021/10/30 06:03:43;;;;;;;;;;;307.30;2304.00;;;;;;5137694;27;19904;-75
2021/10/30 06:06:09;;;;;;;;;;;307.30;2304.00;;;;;;5137706;27;20356;-80
2021/10/30 06:08:34;;;;;;;;;;;307.40;2304.00;;;;;;5137790;27;19907;-75
2021/10/30 06:11:00;;;;;;;;;;;307.40;2304.00;;;;;;5137597;27;19919;-74
2021/10/30 06:13:26;;;;;;;;;;;307.50;2304.00;;;;;;5137490;27;19926;-75
2021/10/30 06:15:51;;;;;;;;;;;307.60;2304.00;;;;;;5137739;27;19910;-75
2021/10/30 06:18:17;;;;;;;;;;;307.60;2304.00;;;;;;5137414;27;19911;-75
2021/10/30 06:20:43;;;;;;;;;;;307.60;2304.00;;;;;;5126748;27;19954;-75
2021/10/30 06:23:08;;;;;;;;;;;307.60;2304.00;;;;;;5131098;27;19904;-75
2021/10/30 06:25:34;;;;;;;;;;;307.70;2304.00;;;;;;5125531;27;19903;-75
2021/10/30 06:28:00;;;;;;;;;;;307.70;2304.00;;;;;;5137343;27;19910;-79
2021/10/30 06:30:25;;;;;;;;;;;307.80;2304.00;;;;;;5137390;27;19914;-76
2021/10/30 06:32:52;;;;;;;;;;;307.80;2304.00;;;;;;5137196;27;19961;-78
2021/10/30 06:35:18;;;;;;;;;;;307.80;2304.00;;;;;;5123065;27;19970;-76
2021/10/30 06:37:43;;;;;;;;;;;307.90;2304.00;;;;;;5137389;27;19910;-75
2021/10/30 06:40:10;;;;;;;;;;;308.00;2304.00;;;;;;5137275;27;19998;-77
2021/10/30 06:42:36;;;;;;;;;;;308.10;2304.00;;;;;;5137343;27;19965;-79
2021/10/30 06:45:02;;;;;;;;;;;308.10;2304.00;;;;;;5136938;27;19908;-76
2021/10/30 06:47:28;;;;;;;;;;;332.80;2329.60;;;;;;5137008;27;19903;-75
2021/10/30 06:49:56;;;;;;;;;;;332.90;2329.60;;;;;;5137003;27;19956;-79
2021/10/30 06:52:22;;;;;;;;;;;332.90;2329.60;;;;;;5136884;27;19947;-76
2021/10/30 06:54:48;;;;;;;;;;;333.00;2329.60;;;;;;5136029;27;19927;-79
2021/10/30 06:57:14;;;;;;;;;;;333.00;2329.60;;;;;;5137077;27;19907;-76
2021/10/30 06:59:39;;;;;;;;;;;333.10;2329.60;;;;;;5136840;27;19957;-75
2021/10/30 07:02:05;;;;;;;;;;;333.20;2329.60;;;;;;5136643;27;20026;-79
2021/10/30 07:04:34;;;;;;;;;;;333.20;2329.60;;;;;;5136649;27;19903;-79
2021/10/30 07:06:59;;;;;;;;;;;333.30;2329.60;;;;;;5136668;27;19903;-80
2021/10/30 07:09:25;;;;;;;;;;;333.40;2329.60;;;;;;5136487;27;20325;-77
2021/10/30 07:11:50;;;;;;;;;;;333.50;2329.60;;;;;;5136480;27;19922;-76
2021/10/30 07:14:17;;;;;;;;;;;333.50;2329.60;;;;;;5104674;28;20003;-76
2021/10/30 07:16:43;;;;;;;;;;;333.60;2329.60;;;;;;5136326;27;19907;-76
2021/10/30 07:19:08;;;;;;;;;;;333.70;2329.60;;;;;;5136993;27;20033;-79
2021/10/30 07:21:34;;;;;;;;;;;333.70;2329.60;;;;;;5121984;27;19907;-77
2021/10/30 07:24:00;;;;;;;;;;;358.40;2329.60;;;;;;5136590;27;19904;-77
2021/10/30 07:26:26;;;;;;;;;;;358.50;2329.60;;;;;;5118045;27;19903;-80
2021/10/30 07:28:52;;;;;;;;;;;358.60;2329.60;;;;;;5118044;27;20375;-76
2021/10/30 07:31:17;;;;;;;;;;;358.60;2329.60;;;;;;5136186;27;19907;-75
2021/10/30 07:33:43;;;;;;;;;;;358.60;2329.60;;;;;;5117544;27;19980;-76
2021/10/30 07:36:09;;;;;;;;;;;358.80;2329.60;;;;;;5136165;27;19972;-76
2021/10/30 07:38:34;;;;;;;;;;;358.90;2329.60;;;;;;5117920;27;19904;-75
2021/10/30 07:41:00;;;;;;;;;;;358.90;2329.60;;;;;;5117655;27;19915;-80
2021/10/30 07:43:25;;;;;;;;;;;358.90;2329.60;;;;;;5136097;27;19915;-76
2021/10/30 07:45:51;;;;;;;;;;;359.00;2329.60;;;;;;5117880;27;19903;-80
2021/10/30 07:48:17;;;;;;;;;;;359.10;2329.60;;;;;;5117509;27;19911;-76
2021/10/30 07:50:42;;;;;;;;;;;359.10;2329.60;;;;;;5128279;27;19954;-77
2021/10/30 07:53:08;;;;;;;;;;;359.20;2329.60;;;;;;5125512;27;19911;-79
2021/10/30 07:55:35;;;;;;;;;;;359.30;2329.60;;;;;;5124029;27;19903;-75
2021/10/30 07:58:00;;;;;;;;;;;359.30;2329.60;;;;;;5124613;27;20327;-79
2021/10/30 08:00:26;;;;;;;;;;;384.00;2329.60;;;;;;5124877;27;19903;-76
2021/10/30 08:02:51;;;;;;;;;;;384.00;2329.60;;;;;;5125832;27;19904;-81
2021/10/30 08:05:17;;;;;;;;;;;384.00;2329.60;;;;;;5123692;27;19907;-76
2021/10/30 08:07:43;;;;;;;;;;;384.20;2329.60;;;;;;5125481;27;20239;-76
2021/10/30 08:10:09;;;;;;;;;;;384.20;2329.60;;;;;;5108173;27;19912;-75
2021/10/30 08:12:35;;;;;;;;;;;384.30;2329.60;;;;;;5126042;27;19923;-78
2021/10/30 08:15:01;;;;;;;;;;;384.30;2329.60;;;;;;5121433;27;19949;-76
2021/10/30 08:17:27;;;;;;;;;;;384.40;2329.60;;;;;;5117175;27;20431;-75
2021/10/30 08:19:53;;;;;;;;;;;384.40;2329.60;;;;;;5135289;27;19907;-80
2021/10/30 08:22:19;;;;;;;;;;;384.50;2304.00;;;;;;5117378;27;19919;-81
2021/10/30 08:24:48;;;;;;;;;;;384.60;2304.00;;;;;;5134975;27;19985;-75
2021/10/30 08:27:14;;;;;;;;;;;384.70;2304.00;;;;;;5135512;27;19972;-75
2021/10/30 08:29:41;;;;;;;;;;;384.40;2278.40;;;;;;5135092;27;20358;-75
2021/10/30 08:32:07;;;;;;;;;;;384.70;2278.40;;;;;;5135098;27;19914;-75
2021/10/30 08:34:33;;;;;;;;;;;384.80;2252.80;;;;;;5134871;27;19903;-77
2021/10/30 08:36:58;;;;;;;;;;;384.90;2252.80;;;;;;5135063;27;19903;-75
2021/10/30 08:39:24;;;;;;;;;;;409.60;2278.40;;;;;;5106319;28;19904;-75
2021/10/30 08:41:50;;;;;;;;;;;409.60;2252.80;;;;;;5112664;27;19956;-76
2021/10/30 08:44:17;;;;;;;;;;;409.70;2227.20;;;;;;5116423;27;19963;-75
2021/10/30 08:46:43;;;;;;;;;;;409.80;2252.80;;;;;;5134845;27;20040;-81
2021/10/30 08:49:10;;;;;;;;;;;409.90;2227.20;;;;;;5127779;27;20006;-76
2021/10/30 08:51:36;;;;;;;;;;;410.00;2227.20;;;;;;5109364;27;19910;-80
2021/10/30 08:54:03;;;;;;;;;;;410.30;2252.80;;;;;;5134785;27;19904;-80
2021/10/30 08:56:29;;;;;;;;;;;410.40;2201.60;;;;;;5134705;27;19927;-76
2021/10/30 08:58:55;;;;;;;;;;;410.40;2176.00;;;;;;5131436;27;20353;-78
2021/10/30 09:01:20;;;;;;;;;;;410.50;2176.00;;;;;;5123631;27;19958;-78
2021/10/30 09:03:57;;;;;;;;;;;435.30;2124.80;;;;;;5115945;27;20298;-81
2021/10/30 09:06:39;;;;;;;;;;;435.30;2124.80;;;;;;5107438;28;19972;-79
2021/10/30 09:09:11;;;;;;;;;;;435.50;2124.80;;;;;;5128361;27;19931;-80
2021/10/30 09:11:39;;;;;;;;;;;435.50;2073.60;;;;;;5123670;27;19914;-75
2021/10/30 09:14:04;;;;;;;;;;;435.60;2073.60;;;;;;5134475;27;19918;-80
2021/10/30 09:16:30;;;;;;;;;;;435.60;2048.00;;;;;;5124271;27;19990;-75
2021/10/30 09:18:56;;;;;;;;;;;435.80;2048.00;;;;;;5122792;27;19926;-76
2021/10/30 09:21:21;;;;;;;;;;;435.80;2048.00;;;;;;5125545;27;19903;-78
2021/10/30 09:23:53;;;;;;;;;;;435.80;2048.00;;;;;;5128191;27;19908;-78
2021/10/30 09:26:22;;;;;;;;;;;435.90;2022.40;;;;;;5106880;28;19914;-78
2021/10/30 09:28:52;;;;;;;;;;;435.90;2022.40;;;;;;5110294;28;19972;-74
2021/10/30 09:31:19;;;;;;;;;;;435.90;2022.40;;;;;;5127911;27;19969;-79
2021/10/30 09:33:49;;;;;;;;;;;436.10;1996.80;;;;;;5115568;28;19903;-78
2021/10/30 09:36:15;;;;;;;;;;;460.80;2022.40;;;;;;5106931;28;19950;-77
2021/10/30 09:38:45;;;;;;;;;;;436.10;1971.20;;;;;;5122756;28;20331;-76
2021/10/30 09:41:24;;;;;;;;;;;460.80;2022.40;;;;;;5131358;28;19915;-76
2021/10/30 09:43:57;;;;;;;;;;;460.80;1996.80;;;;;;5133922;28;19919;-76
2021/10/30 09:46:23;;;;;;;;;;;460.90;1996.80;;;;;;5134033;28;20234;-80
2021/10/30 09:48:50;;;;;;;;;;;461.10;1996.80;;;;;;5133840;28;19964;-81
2021/10/30 09:51:28;;;;;;;;;;;460.90;1996.80;;;;;;5115731;28;19907;-76
2021/10/30 09:53:54;;;;;;;;;;;460.90;1971.20;;;;;;5134094;28;19986;-79
2021/10/30 09:56:19;;;;;;;;;;;460.90;1971.20;;;;;;5133876;28;19944;-76
2021/10/30 09:58:46;;;;;;;;;;;461.00;1996.80;;;;;;5115726;28;20298;-76
2021/10/30 10:01:13;;;;;;;;;;;461.10;1971.20;;;;;;5133806;28;19907;-76
2021/10/30 10:03:42;;;;;;;;;;;461.20;1945.60;;;;;;5133911;28;19910;-77
2021/10/30 10:06:09;;;;;;;;;;;461.10;1945.60;;;;;;5115503;28;19917;-82
2021/10/30 10:08:38;;;;;;;;;;;461.20;1945.60;;;;;;5126579;28;19913;-75
2021/10/30 10:11:11;;;;;;;;;;;461.30;1971.20;;;;;;5133741;28;19960;-76
2021/10/30 10:13:37;;;;;;;;;;;461.30;1945.60;;;;;;5133800;28;20368;-76
2021/10/30 10:16:04;;;;;;;;;;;461.30;1945.60;;;;;;5115422;28;20275;-76
2021/10/30 10:18:29;;;;;;;;;;;461.20;1920.00;;;;;;5119941;28;19913;-78
2021/10/30 10:20:55;;;;;;;;;;;461.20;1920.00;;;;;;5115449;28;19907;-76
2021/10/30 10:23:21;;;;;;;;;;;461.30;1920.00;;;;;;5115568;28;19910;-78
2021/10/30 10:25:51;;;;;;;;;;;461.30;1920.00;;;;;;5133807;28;19932;-76
2021/10/30 10:28:33;;;;;;;;;;;461.40;1920.00;;;;;;5130963;28;19911;-80
2021/10/30 10:31:01;;;;;;;;;;;461.40;1920.00;;;;;;5128471;27;20344;-83
2021/10/30 10:33:28;;;;;;;;;;;461.20;1894.40;;;;;;5137601;27;19942;-74
2021/10/30 10:36:13;;;;;;;;;;;461.30;1894.40;;;;;;5137402;27;20291;-74
2021/10/30 10:38:57;;;;;;;;;;;461.20;1894.40;;;;;;5106392;27;20380;-81
2021/10/30 10:41:44;;;;;;;;;;;461.50;1920.00;;;;;;5137370;27;19914;-78
2021/10/30 10:44:11;;;;;;;;;;;461.40;1868.80;;;;;;5124718;27;20299;-74
2021/10/30 10:46:54;;;;;;;;;;;461.60;1868.80;;;;;;5137009;27;19948;-74
2021/10/30 10:49:27;;;;;;;;;;;461.40;1868.80;;;;;;5124932;27;19915;-82
2021/10/30 10:52:13;;;;;;;;;;;461.60;1843.20;;;;;;5136958;27;19907;-74
2021/10/30 10:54:54;;;;;;;;;;;461.40;1843.20;;;;;;5137322;27;20272;-82
2021/10/30 10:57:20;;;;;;;;;;;461.70;1843.20;;;;;;5136802;27;19903;-75
2021/10/30 10:59:46;;;;;;;;;;;486.50;1817.60;;;;;;5137192;27;19907;-75
2021/10/30 11:02:16;;;;;;;;;;;486.50;1792.00;;;;;;5136611;27;20356;-74
2021/10/30 11:05:02;;;;;;;;;;;461.70;1792.00;;;;;;5134496;27;19926;-80
2021/10/30 11:07:27;;;;;;;;;;;486.50;1792.00;;;;;;5118300;27;20386;-81
2021/10/30 11:09:54;;;;;;;;;;;486.50;1817.60;;;;;;5118611;27;19911;-80
2021/10/30 11:12:24;;;;;;;;;;;486.70;1817.60;;;;;;5102051;27;20257;-73
2021/10/30 11:15:10;;;;;;;;;;;486.50;1792.00;;;;;;5118335;27;19915;-73
2021/10/30 11:17:36;;;;;;;;;;;486.40;1740.80;;;;;;5117570;27;19958;-74
2021/10/30 11:20:15;;;;;;;;;;;486.50;1740.80;;;;;;5122502;27;19918;-73
2021/10/30 11:23:00;;;;;;;;;;;486.40;1766.40;;;;;;5122375;27;19943;-74
2021/10/30 11:25:27;;;;;;;;;;;486.40;1766.40;;;;;;5135838;27;19912;-75
2021/10/30 11:27:53;;;;;;;;;;;486.50;1740.80;;;;;;5135978;27;19911;-74
2021/10/30 11:30:38;;;;;;;;;;;486.70;1740.80;;;;;;5134837;27;19941;-74
2021/10/30 11:33:23;;;;;;;;;;;486.50;1740.80;;;;;;5134104;27;19915;-79
2021/10/30 11:36:01;;;;;;;;;;;486.40;1740.80;;;;;;5135427;27;20352;-75
2021/10/30 11:38:47;;;;;;;;;;;486.40;1766.40;;;;;;5135879;27;19998;-79
2021/10/30 11:41:15;;;;;;;;;;;461.70;1766.40;;;;;;5109041;27;19907;-76
2021/10/30 11:43:41;;;;;;;;;;;486.60;1766.40;;;;;;5133267;27;19918;-78
2021/10/30 11:46:07;;;;;;;;;;;486.60;1766.40;;;;;;5131522;27;20268;-74
2021/10/30 11:48:35;;;;;;;;;;;486.50;1766.40;;;;;;5135624;27;19911;-76
2021/10/30 11:51:01;;;;;;;;;;;461.70;1740.80;;;;;;5135709;27;19914;-76
2021/10/30 11:53:30;;;;;;;;;;;461.70;1740.80;;;;;;5135828;27;19907;-80
2021/10/30 11:55:59;;;;;;;;;;;486.40;1715.20;;;;;;5135040;27;19915;-76
2021/10/30 11:58:43;;;;;;;;;;;486.40;1715.20;;;;;;5134262;27;19911;-74
2021/10/30 12:01:22;;;;;;;;;;;486.50;1740.80;;;;;;5130901;27;19936;-78
2021/10/30 12:04:07;;;;;;;;;;;486.50;1689.60;;;;;;5132223;27;19915;-75
2021/10/30 12:06:34;;;;;;;;;;;461.70;1715.20;;;;;;5134184;27;19931;-74
2021/10/30 12:09:02;;;;;;;;;;;486.40;1689.60;;;;;;5134480;27;19916;-76
2021/10/30 12:11:28;;;;;;;;;;;461.70;1664.00;;;;;;5124595;27;20330;-76
2021/10/30 12:13:57;;;;;;;;;;;486.40;1664.00;;;;;;5134980;27;19912;-76
2021/10/30 12:16:24;;;;;;;;;;;486.40;1664.00;;;;;;5134949;27;19933;-78
2021/10/30 12:18:50;;;;;;;;;;;486.50;1664.00;;;;;;5134361;27;19907;-76
2021/10/30 12:21:15;;;;;;;;;;;486.40;1664.00;;;;;;5134349;27;19911;-75
2021/10/30 12:23:52;;;;;;;;;;;486.40;1664.00;;;;;;5135051;27;19910;-76
2021/10/30 12:26:17;;;;;;;;;;;461.70;1664.00;;;;;;5135414;27;19949;-75
2021/10/30 12:28:43;;;;;;;;;;;486.50;1664.00;;;;;;5135405;27;19950;-76
2021/10/30 12:31:11;;;;;;;;;;;486.40;1664.00;;;;;;5135228;27;19965;-76
2021/10/30 12:33:37;;;;;;;;;;;486.40;1664.00;;;;;;5135132;27;19956;-76
2021/10/30 12:36:05;;;;;;;;;;;486.40;1664.00;;;;;;5134648;27;20371;-75
2021/10/30 12:38:30;;;;;;;;;;;486.40;1664.00;;;;;;5134952;27;19910;-79
2021/10/30 12:40:57;;;;;;;;;;;461.60;1664.00;;;;;;5125957;27;20288;-75
2021/10/30 12:43:23;;;;;;;;;;;461.60;1664.00;;;;;;5133437;27;20349;-80
2021/10/30 12:45:49;;;;;;;;;;;461.50;1715.20;;;;;;5135019;27;20025;-75
2021/10/30 12:48:15;;;;;;;;;;;461.70;1715.20;;;;;;5134505;27;19904;-76
2021/10/30 12:50:41;;;;;;;;;;;461.60;1715.20;;;;;;5120403;27;19904;-75
2021/10/30 12:53:21;;;;;;;;;;;461.70;1740.80;;;;;;5131187;27;19910;-77
2021/10/30 12:55:57;;;;;;;;;;;461.50;1715.20;;;;;;5125973;27;20295;-77
2021/10/30 12:58:32;;;;;;;;;;;461.40;1689.60;;;;;;5134791;27;19990;-80
2021/10/30 13:00:58;;;;;;;;;;;461.30;1715.20;;;;;;5133595;27;19904;-77
2021/10/30 13:03:29;;;;;;;;;;;461.20;1715.20;;;;;;5134680;27;20267;-76
2021/10/30 13:05:55;;;;;;;;;;;461.20;1740.80;;;;;;5134690;27;19994;-80
2021/10/30 13:08:21;;;;;;;;;;;461.20;1766.40;;;;;;5133307;27;19962;-83
2021/10/30 13:10:48;;;;;;;;;;;461.30;1766.40;;;;;;5133319;27;19919;-77
2021/10/30 13:13:13;;;;;;;;;;;461.40;1766.40;;;;;;5134157;27;20395;-76
2021/10/30 13:15:39;;;;;;;;;;;461.20;1792.00;;;;;;5134264;27;19950;-76
2021/10/30 13:18:04;;;;;;;;;;;461.20;1766.40;;;;;;5127537;27;20353;-77
2021/10/30 13:20:31;;;;;;;;;;;461.20;1792.00;;;;;;5124905;27;19908;-78
2021/10/30 13:22:56;;;;;;;;;;;461.20;1792.00;;;;;;5133749;27;19910;-75
2021/10/30 13:25:22;;;;;;;;;;;461.20;1792.00;;;;;;5123504;28;20283;-76
2021/10/30 13:27:47;;;;;;;;;;;461.10;1792.00;;;;;;5123713;28;19910;-75
2021/10/30 13:30:13;;;;;;;;;;;461.10;1817.60;;;;;;5133669;28;20348;-75
2021/10/30 13:32:39;;;;;;;;;;;461.00;1817.60;;;;;;5124156;28;19907;-75
2021/10/30 13:35:05;;;;;;;;;;;460.90;1817.60;;;;;;5133805;27;19973;-74
2021/10/30 13:37:31;;;;;;;;;;;461.20;1817.60;;;;;;5126136;27;19916;-79
2021/10/30 13:39:56;;;;;;;;;;;460.90;1817.60;;;;;;5122426;28;20284;-74
2021/10/30 13:42:22;;;;;;;;;;;460.90;1843.20;;;;;;5133405;27;20276;-74